Fairbanks/Eielson AFB, Alaska
Current Conditions -  °F | °C
As of 11:58 PM on Wednesday 26 Nov 2014 (Local Time) from PAEI Reporting Station
Clear Clear  
Wind Chill: -15°   Ceiling: Unl
Heat Index: -15°   Visibility: 10mi
Dew Point: -21°   Wind: 3mph
Humidity: 75%   Direction: 160°SSE
Pressure: 30.44"   Gusts: NA
Location:  64.67°N, 147.1°W
Report Text: PAEI 270858Z AUTO 16003KT 10SM CLR M26/M29 A3044 RMK AO2 SNB0819E0837 SLP329 P0000 60000 T12611293 411021262 55005 $
Loading
Personal Weather Stations






























Interactive Weather Map New forecast layout! Learn more

10-Day Weather Forecast

Advertisements
Track Severe Weather on mobile